Airfield :
LOGIN :

Register | Disclaimer

   EN    FR    IT 

 










Legend :    VFR   Marginal VFR   IFR   Intensive IFR   Very Intensive IFR
Visi :
Ceiling :
>= 8 km
>= 3000ft
5 to 8 km
1000 to 3000 ft
1500m to 5 km
500 to 1000 ft
800 to 1500m
200 to 500 ft
< 800m
< 200 ft
Symbols :   Thunderstorms  Fog  Heavy snow  Heavy precipitations  Wind > 20 kt
SIGMETs :     Misc.  Thunderstorms  Icing  Turbulence  Mountain Waves  Volcanic Ashes






- Airport Elevation : 226 ft
- IATA code : BEX


EGUB - RAF Benson

CURRENT METAR :
  • 041220Z 21011KT 9999 FEW016 BKN250 18/13 Q1016 TEMPO SCT016 RMK BLU TEMPO WHT

EXPIRED METARs :
  • 041150Z 23011KT 9999 -RA SCT017 BKN033 17/13 Q1016 NOSIG RMK WHT WHT
  • 041120Z 21012G23KT 9999 -RA SCT022 BKN033 18/13 Q1016 RMK WHT
  • 041050Z 21013KT 9999 SCT020 BKN030 17/13 Q1016 NOSIG RMK WHT WHT
  • 041020Z 19013KT 9999 FEW018 BKN024 16/12 Q1016 NOSIG RMK WHT WHT
  • 040950Z 19012KT 9999 FEW016 BKN024 16/12 Q1016 NOSIG RMK WHT WHT

TAF AMD TAF EGUB
Valid from the 04 at 12:00 until the 04 at 21:00 UTC


041159Z 0412/0421 21015KT 9999 BKN025
TEMPO 0412/0421 BKN022
PROB40
TEMPO 0416/0421 SCT012
ATIS : +44 1491-837766 (x7524)



MET'MAP, your aeronautical weather chart ! - Copyright ORBIFLY December 2007 - Disclaimer

ORBIFLY MET'MAP TEAM :

Programming & Development : Alexandra Zaïnal
Original concept : Baudouin d'Aumeries
Technical & hardware support : Manuel Goepfert
Assistance : Marc-Olivier Méhu




SOURCES & CREDITS :

   NOAA